Search for airport 
image banner adimage banner adimage banner ad
image banner ad

44CN - Occidental Petroleum

Located in Los Angeles, United States

ICAO - 44CN, IATA -

Data provided by Airmate  

General information

Coordinates: N34°3'33" W118°26'39"
Elevation is 509 feet MSL.
Magnetic variation is 14° East
View others Airports in California

Operational data

Special qualification required
Current time UTC:
Current local time:
Weather at : KSMO - Santa Monica Muni ( 5 km )
METAR: KSMO 221351Z 00000KT 10SM OVC009 16/14 A2993 RMK AO2 SLP135 T01610139
TAF: KSMO 221340Z 2214/2312 20004KT P6SM BKN009 FM221700 23008KT P6SM SCT010 FM230400 VRB03KT P6SM SKC FM230800 VRB03KT P6SM BKN009
View NOTAMs / SUP AIP / TFR affecting this airport [VIEW]
Communications frequencies: [VIEW]

Runways:

Airport contact information

Address: Los Angeles United States

Satellite view of 44CN